createdAt,value
2023-03-05T00:01:55.428Z,3.74
2023-03-05T00:04:22.448Z,3.70
2023-03-05T00:06:49.138Z,3.71
2023-03-05T00:09:15.773Z,3.70
2023-03-05T00:11:42.388Z,3.69
2023-03-05T00:14:10.563Z,3.71
2023-03-05T00:16:37.045Z,3.72
2023-03-05T00:19:04.205Z,3.72
2023-03-05T00:21:36.429Z,3.71
2023-03-05T00:24:05.315Z,3.72
2023-03-05T00:26:34.450Z,3.72
2023-03-05T00:29:01.098Z,3.73
2023-03-05T00:31:32.458Z,3.73
2023-03-05T00:34:04.065Z,3.67
2023-03-05T00:36:31.230Z,3.62
2023-03-05T00:38:58.909Z,3.56
2023-03-05T00:41:25.408Z,3.49
2023-03-05T00:43:51.842Z,3.45
2023-03-05T00:46:18.695Z,3.44
2023-03-05T00:48:45.145Z,3.42
2023-03-05T00:51:11.972Z,3.41
2023-03-05T00:53:38.466Z,3.36
2023-03-05T00:56:05.523Z,3.35
2023-03-05T00:58:32.109Z,3.33
2023-03-05T01:01:00.295Z,3.32
2023-03-05T01:03:26.954Z,3.30
2023-03-05T01:05:53.475Z,3.27
2023-03-05T01:08:20.106Z,3.23
2023-03-05T01:10:46.574Z,3.22
2023-03-05T01:13:13.050Z,3.24
2023-03-05T01:15:39.558Z,3.22
2023-03-05T01:18:06.054Z,3.21
2023-03-05T01:20:32.732Z,3.20
2023-03-05T01:23:01.721Z,3.20
2023-03-05T01:25:28.762Z,3.20
2023-03-05T01:27:55.169Z,3.24
2023-03-05T01:30:21.747Z,3.24
2023-03-05T01:32:48.153Z,3.24
2023-03-05T01:35:20.820Z,3.26
2023-03-05T01:37:47.711Z,3.24
2023-03-05T01:40:16.974Z,3.25
2023-03-05T01:42:48.157Z,3.27
2023-03-05T01:45:17.427Z,3.26
2023-03-05T01:47:44.678Z,3.24
2023-03-05T01:50:16.128Z,3.23
2023-03-05T01:52:49.123Z,3.22
2023-03-05T01:55:21.645Z,3.20
2023-03-05T01:57:52.196Z,3.17
2023-03-05T02:00:31.757Z,3.16
2023-03-05T02:03:03.569Z,3.15
2023-03-05T02:05:33.730Z,3.14
2023-03-05T02:08:02.843Z,3.15
2023-03-05T02:10:33.001Z,3.14
2023-03-05T02:13:04.927Z,3.13
2023-03-05T02:15:33.432Z,3.11
2023-03-05T02:18:01.337Z,3.11
2023-03-05T02:20:30.536Z,3.10
2023-03-05T02:22:57.084Z,3.10
2023-03-05T02:25:27.565Z,3.12
2023-03-05T02:27:59.983Z,3.11
2023-03-05T02:30:27.435Z,3.09
2023-03-05T02:32:54.092Z,3.08
2023-03-05T02:35:21.160Z,3.05
2023-03-05T02:37:47.585Z,3.03
2023-03-05T02:40:14.839Z,3.04
2023-03-05T02:42:42.002Z,3.05
2023-03-05T02:45:09.899Z,3.01
2023-03-05T02:47:36.413Z,3.02
2023-03-05T02:50:03.768Z,3.01
2023-03-05T02:52:31.379Z,3.02
2023-03-05T02:54:57.895Z,2.99
2023-03-05T02:57:24.738Z,2.97
2023-03-05T02:59:51.259Z,2.99
2023-03-05T03:02:17.896Z,3.01
2023-03-05T03:04:45.401Z,3.03
2023-03-05T03:07:15.825Z,3.04
2023-03-05T03:09:45.660Z,3.03
2023-03-05T03:12:12.454Z,3.05
2023-03-05T03:14:42.424Z,3.06
2023-03-05T03:17:14.461Z,3.08
2023-03-05T03:19:41.147Z,3.09
2023-03-05T03:22:09.493Z,3.06
2023-03-05T03:24:37.344Z,3.05
2023-03-05T03:27:04.374Z,3.04
2023-03-05T03:29:31.447Z,3.03
2023-03-05T03:31:58.349Z,3.01
2023-03-05T03:34:24.981Z,2.97
2023-03-05T03:36:52.923Z,2.99
2023-03-05T03:39:19.988Z,2.98
2023-03-05T03:41:52.215Z,2.98
2023-03-05T03:44:19.891Z,2.97
2023-03-05T03:46:47.781Z,2.96
2023-03-05T03:49:20.093Z,2.98
2023-03-05T03:51:47.678Z,2.97
2023-03-05T03:54:16.252Z,2.99
2023-03-05T03:56:43.018Z,2.98
2023-03-05T03:59:09.909Z,2.99
2023-03-05T04:01:36.596Z,2.99
2023-03-05T04:04:03.714Z,2.99
2023-03-05T04:06:30.711Z,2.98
2023-03-05T04:08:57.273Z,2.98
2023-03-05T04:11:24.111Z,2.98
2023-03-05T04:13:51.325Z,2.99
2023-03-05T04:16:17.942Z,2.98
2023-03-05T04:18:44.494Z,2.95
2023-03-05T04:21:11.523Z,2.94
2023-03-05T04:23:39.426Z,2.94
2023-03-05T04:26:06.483Z,2.96
2023-03-05T04:28:33.607Z,2.96
2023-03-05T04:31:00.227Z,2.96
2023-03-05T04:33:26.784Z,2.97
2023-03-05T04:35:53.355Z,2.96
2023-03-05T04:38:19.862Z,2.96
2023-03-05T04:40:47.349Z,2.96
2023-03-05T04:43:13.834Z,2.95
2023-03-05T04:45:41.266Z,2.94
2023-03-05T04:48:08.886Z,2.94
2023-03-05T04:50:35.640Z,2.93
2023-03-05T04:53:03.333Z,2.92
2023-03-05T04:55:29.913Z,2.90
2023-03-05T04:57:56.583Z,2.86
2023-03-05T05:00:23.256Z,2.82
2023-03-05T05:02:51.113Z,2.81
2023-03-05T05:05:21.130Z,2.80
2023-03-05T05:07:47.569Z,2.77
2023-03-05T05:10:15.444Z,2.76
2023-03-05T05:12:42.529Z,2.76
2023-03-05T05:15:09.637Z,2.76
2023-03-05T05:17:36.277Z,2.74
2023-03-05T05:20:06.610Z,2.76
2023-03-05T05:22:34.152Z,2.74
2023-03-05T05:25:00.963Z,2.74
2023-03-05T05:27:28.039Z,2.72
2023-03-05T05:29:54.570Z,2.69
2023-03-05T05:32:24.134Z,2.71
2023-03-05T05:34:58.078Z,2.68
2023-03-05T05:37:26.398Z,2.67
2023-03-05T05:39:53.033Z,2.64
2023-03-05T05:42:21.456Z,2.60
2023-03-05T05:44:48.367Z,2.58
2023-03-05T05:47:16.673Z,2.55
2023-03-05T05:49:43.208Z,2.54
2023-03-05T05:52:11.266Z,2.54
2023-03-05T05:54:38.327Z,2.54
2023-03-05T05:57:04.888Z,2.53
2023-03-05T05:59:31.359Z,2.56
2023-03-05T06:01:57.925Z,2.57
2023-03-05T06:04:24.435Z,2.59
2023-03-05T06:06:51.132Z,2.60
2023-03-05T06:09:17.635Z,2.60
2023-03-05T06:11:44.144Z,2.62
2023-03-05T06:14:12.511Z,2.64
2023-03-05T06:16:39.548Z,2.63
2023-03-05T06:19:06.269Z,2.65
2023-03-05T06:21:33.622Z,2.65
2023-03-05T06:24:00.267Z,2.66
2023-03-05T06:26:26.834Z,2.68
2023-03-05T06:28:54.415Z,2.66
2023-03-05T06:31:27.674Z,2.68
2023-03-05T06:33:56.487Z,2.69
2023-03-05T06:36:24.528Z,2.70
2023-03-05T06:38:53.326Z,2.72
2023-03-05T06:41:23.108Z,2.72
2023-03-05T06:43:49.736Z,2.74
2023-03-05T06:46:22.036Z,2.74
2023-03-05T06:48:50.744Z,2.74
2023-03-05T06:51:20.595Z,2.75
2023-03-05T06:53:49.512Z,2.74
2023-03-05T06:56:16.762Z,2.75
2023-03-05T06:58:45.922Z,2.74
2023-03-05T07:01:13.585Z,2.74
2023-03-05T07:03:40.381Z,2.77
2023-03-05T07:06:10.243Z,2.79
2023-03-05T07:08:38.154Z,2.80
2023-03-05T07:11:10.262Z,2.84
2023-03-05T07:13:36.830Z,2.89
2023-03-05T07:16:08.680Z,2.92
2023-03-05T07:18:35.725Z,2.96
2023-03-05T07:21:04.000Z,3.02
2023-03-05T07:23:30.582Z,3.09
2023-03-05T07:25:57.397Z,3.13
2023-03-05T07:28:23.897Z,3.21
2023-03-05T07:31:02.324Z,3.25
2023-03-05T07:33:29.170Z,3.26
2023-03-05T07:35:56.083Z,3.26
2023-03-05T07:38:22.977Z,3.27
2023-03-05T07:40:50.056Z,3.28
2023-03-05T07:43:17.580Z,3.31
2023-03-05T07:45:45.449Z,3.34
2023-03-05T07:48:17.978Z,3.39
2023-03-05T07:50:44.621Z,3.44
2023-03-05T07:53:11.160Z,3.46
2023-03-05T07:55:45.214Z,3.49
2023-03-05T07:58:13.287Z,3.57
2023-03-05T08:00:40.948Z,3.64
2023-03-05T08:03:07.796Z,3.73
2023-03-05T08:05:34.346Z,3.83
2023-03-05T08:08:00.823Z,3.83
2023-03-05T08:10:27.373Z,3.88
2023-03-05T08:12:54.047Z,3.90
2023-03-05T08:15:20.841Z,3.89
2023-03-05T08:17:47.393Z,3.86
2023-03-05T08:20:14.069Z,3.86
2023-03-05T08:22:40.651Z,3.84
2023-03-05T08:25:07.942Z,3.91
2023-03-05T08:27:38.979Z,4.07
2023-03-05T08:30:06.256Z,4.21
2023-03-05T08:32:32.919Z,4.37
2023-03-05T08:34:59.442Z,4.51
2023-03-05T08:37:25.973Z,4.58
2023-03-05T08:39:52.586Z,4.65
2023-03-05T08:42:19.044Z,4.74
2023-03-05T08:44:45.572Z,4.79
2023-03-05T08:47:12.061Z,4.81
2023-03-05T08:49:38.585Z,4.81
2023-03-05T08:52:05.475Z,4.80
2023-03-05T08:54:34.212Z,4.83
2023-03-05T08:57:00.884Z,4.86
2023-03-05T08:59:27.314Z,4.97
2023-03-05T09:01:53.805Z,4.97
2023-03-05T09:04:20.348Z,5.10
2023-03-05T09:06:46.790Z,5.09
2023-03-05T09:09:14.138Z,5.03
2023-03-05T09:11:40.545Z,5.07
2023-03-05T09:14:07.447Z,5.10
2023-03-05T09:16:33.981Z,5.16
2023-03-05T09:19:00.509Z,5.14
2023-03-05T09:21:26.990Z,5.13
2023-03-05T09:23:53.535Z,5.14
2023-03-05T09:26:20.691Z,5.16
2023-03-05T09:28:48.269Z,5.25
2023-03-05T09:31:14.868Z,5.29
2023-03-05T09:33:41.354Z,5.29
2023-03-05T09:36:18.716Z,5.28
2023-03-05T09:38:45.468Z,5.33
2023-03-05T09:41:17.400Z,5.41
2023-03-05T09:44:25.657Z,5.53
2023-03-05T09:47:19.862Z,5.63
2023-03-05T09:50:01.460Z,5.67
2023-03-05T09:52:45.052Z,5.65
2023-03-05T09:55:17.624Z,5.68
2023-03-05T09:57:52.128Z,5.78
2023-03-05T10:00:47.123Z,5.88
2023-03-05T10:03:26.788Z,6.04
2023-03-05T10:06:00.616Z,6.13
2023-03-05T10:08:37.353Z,6.03
2023-03-05T10:11:10.741Z,6.07
2023-03-05T10:13:42.171Z,6.01
2023-03-05T10:16:46.108Z,6.00
2023-03-05T10:19:40.896Z,5.99
2023-03-05T10:22:24.249Z,6.07
2023-03-05T10:25:09.354Z,6.15
2023-03-05T10:27:35.777Z,6.24
2023-03-05T10:30:34.140Z,6.31
2023-03-05T10:33:22.721Z,6.56
2023-03-05T10:36:07.996Z,6.69
2023-03-05T10:39:09.285Z,6.73
2023-03-05T10:42:02.417Z,6.76
2023-03-05T10:44:37.894Z,6.93
2023-03-05T10:47:14.764Z,6.94
2023-03-05T10:49:50.353Z,7.20
2023-03-05T10:52:29.257Z,7.32
2023-03-05T10:54:55.845Z,7.35
2023-03-05T10:57:25.236Z,7.49
2023-03-05T10:59:58.601Z,7.67
2023-03-05T11:02:25.331Z,7.83
2023-03-05T11:04:52.777Z,7.79
2023-03-05T11:07:19.260Z,7.80
2023-03-05T11:10:04.011Z,7.79
2023-03-05T11:12:33.341Z,7.71
2023-03-05T11:15:11.885Z,7.90
2023-03-05T11:18:03.350Z,8.05
2023-03-05T11:20:37.320Z,8.19
2023-03-05T11:23:23.561Z,8.15
2023-03-05T11:25:58.854Z,8.28
2023-03-05T11:28:33.468Z,8.23
2023-03-05T11:31:15.639Z,8.10
2023-03-05T11:33:57.408Z,8.01
2023-03-05T11:36:29.952Z,8.10
2023-03-05T11:38:58.713Z,8.17
2023-03-05T11:41:49.423Z,8.47
2023-03-05T11:44:48.411Z,8.81
2023-03-05T11:47:39.582Z,8.84
2023-03-05T11:50:27.384Z,8.78
2023-03-05T11:53:24.258Z,8.45
2023-03-05T11:56:03.327Z,8.43
2023-03-05T11:58:50.055Z,8.59
2023-03-05T12:01:20.798Z,8.58
2023-03-05T12:03:48.735Z,8.83
2023-03-05T12:06:18.155Z,8.84
2023-03-05T12:08:48.992Z,8.98
2023-03-05T12:11:20.448Z,8.81
2023-03-05T12:13:52.415Z,8.94
2023-03-05T12:16:26.200Z,8.79
2023-03-05T12:19:11.273Z,8.62
2023-03-05T12:21:41.194Z,8.65
2023-03-05T12:24:28.131Z,8.60
2023-03-05T12:27:06.178Z,8.59
2023-03-05T12:29:52.538Z,8.67
2023-03-05T12:32:21.942Z,8.56
2023-03-05T12:35:01.701Z,8.44
2023-03-05T12:37:28.129Z,8.31
2023-03-05T12:40:21.648Z,8.40
2023-03-05T12:42:59.665Z,8.44
2023-03-05T12:45:29.120Z,8.43
2023-03-05T12:47:55.563Z,8.39
2023-03-05T12:50:28.054Z,8.44
2023-03-05T12:53:07.050Z,8.39
2023-03-05T12:55:45.399Z,8.40
2023-03-05T12:58:24.437Z,8.43
2023-03-05T13:01:04.464Z,8.47
2023-03-05T13:03:35.501Z,8.40
2023-03-05T13:06:04.924Z,8.60
2023-03-05T13:08:36.083Z,8.69
2023-03-05T13:11:22.846Z,8.62
2023-03-05T13:13:50.357Z,8.60
2023-03-05T13:16:24.374Z,8.46
2023-03-05T13:18:52.552Z,8.47
2023-03-05T13:21:24.038Z,8.54
2023-03-05T13:23:58.933Z,8.76
2023-03-05T13:26:47.387Z,8.81
2023-03-05T13:29:19.443Z,8.84
2023-03-05T13:31:54.534Z,9.19
2023-03-05T13:34:46.715Z,9.49
2023-03-05T13:37:18.755Z,9.58
2023-03-05T13:39:50.940Z,9.57
2023-03-05T13:42:36.659Z,9.46
2023-03-05T13:45:21.997Z,9.38
2023-03-05T13:48:07.075Z,9.19
2023-03-05T13:50:36.564Z,8.91
2023-03-05T13:53:25.124Z,8.85
2023-03-05T13:55:55.454Z,8.93
2023-03-05T13:58:59.398Z,8.88
2023-03-05T14:01:36.898Z,9.00
2023-03-05T14:04:08.436Z,8.92
2023-03-05T14:06:42.260Z,8.84
2023-03-05T14:09:33.081Z,8.81
2023-03-05T14:12:03.948Z,8.58
2023-03-05T14:14:35.018Z,8.47
2023-03-05T14:17:21.344Z,8.56
2023-03-05T14:19:47.953Z,8.48
2023-03-05T14:22:40.921Z,8.34
2023-03-05T14:25:39.667Z,8.27
2023-03-05T14:28:18.295Z,8.29
2023-03-05T14:30:50.484Z,8.09
2023-03-05T14:33:44.329Z,8.08
2023-03-05T14:36:11.282Z,8.08
2023-03-05T14:38:42.827Z,8.04
2023-03-05T14:41:24.410Z,7.88
2023-03-05T14:43:50.911Z,7.77
2023-03-05T14:46:17.588Z,7.65
2023-03-05T14:48:44.155Z,7.57
2023-03-05T14:51:11.531Z,7.44
2023-03-05T14:53:47.283Z,7.32
2023-03-05T14:56:27.246Z,7.25
2023-03-05T14:58:54.365Z,7.25
2023-03-05T15:01:21.262Z,7.22
2023-03-05T15:03:47.827Z,7.27
2023-03-05T15:06:33.056Z,7.32
2023-03-05T15:09:04.123Z,7.31
2023-03-05T15:11:30.752Z,7.26
2023-03-05T15:13:57.488Z,7.27
2023-03-05T15:16:23.995Z,7.27
2023-03-05T15:18:50.904Z,7.26
2023-03-05T15:21:17.392Z,7.24
2023-03-05T15:23:44.938Z,7.15
2023-03-05T15:26:14.227Z,7.12
2023-03-05T15:28:41.906Z,7.13
2023-03-05T15:31:09.010Z,7.11
2023-03-05T15:33:35.682Z,7.08
2023-03-05T15:36:02.494Z,7.03
2023-03-05T15:38:28.972Z,6.89
2023-03-05T15:40:55.809Z,6.87
2023-03-05T15:43:22.351Z,6.90
2023-03-05T15:45:48.927Z,6.81
2023-03-05T15:48:15.437Z,6.82
2023-03-05T15:50:43.354Z,6.76
2023-03-05T15:53:12.826Z,6.71
2023-03-05T15:55:40.850Z,6.61
2023-03-05T15:58:07.958Z,6.62
2023-03-05T16:00:37.086Z,6.55
2023-03-05T16:03:04.183Z,6.48
2023-03-05T16:05:30.733Z,6.46
2023-03-05T16:07:58.954Z,6.42
2023-03-05T16:10:27.865Z,6.41
2023-03-05T16:13:04.778Z,6.43
2023-03-05T16:15:33.065Z,6.47
2023-03-05T16:18:02.770Z,6.46
2023-03-05T16:20:29.331Z,6.42
2023-03-05T16:22:55.811Z,6.42
2023-03-05T16:25:22.491Z,6.39
2023-03-05T16:27:48.991Z,6.39
2023-03-05T16:30:15.867Z,6.32
2023-03-05T16:32:43.207Z,6.30
2023-03-05T16:35:12.388Z,6.25
2023-03-05T16:37:39.526Z,6.26
2023-03-05T16:40:08.509Z,6.26
2023-03-05T16:42:35.082Z,6.23
2023-03-05T16:45:01.761Z,6.17
2023-03-05T16:47:28.239Z,6.11
2023-03-05T16:49:54.685Z,6.10
2023-03-05T16:52:22.518Z,6.12
2023-03-05T16:54:49.201Z,6.10
2023-03-05T16:57:15.990Z,6.10
2023-03-05T16:59:43.761Z,6.03
2023-03-05T17:02:12.864Z,5.97
2023-03-05T17:04:39.331Z,5.94
2023-03-05T17:07:05.931Z,5.88
2023-03-05T17:09:33.248Z,5.77
2023-03-05T17:12:00.178Z,5.73
2023-03-05T17:14:27.014Z,5.68
2023-03-05T17:16:53.986Z,5.64
2023-03-05T17:19:20.525Z,5.59
2023-03-05T17:21:50.636Z,5.58
2023-03-05T17:24:17.283Z,5.58
2023-03-05T17:26:43.882Z,5.55
2023-03-05T17:29:10.388Z,5.53
2023-03-05T17:31:37.153Z,5.53
2023-03-05T17:34:04.023Z,5.49
2023-03-05T17:36:30.875Z,5.48
2023-03-05T17:38:57.298Z,5.45
2023-03-05T17:41:24.398Z,5.37
2023-03-05T17:43:51.654Z,5.33
2023-03-05T17:46:18.413Z,5.33
2023-03-05T17:48:45.052Z,5.31
2023-03-05T17:51:13.549Z,5.29
2023-03-05T17:53:40.987Z,5.24
2023-03-05T17:56:12.349Z,5.19
2023-03-05T17:58:39.549Z,5.14
2023-03-05T18:01:07.071Z,5.10
2023-03-05T18:03:33.957Z,5.11
2023-03-05T18:06:00.495Z,5.13
2023-03-05T18:08:26.962Z,5.03
2023-03-05T18:10:54.524Z,4.93
2023-03-05T18:13:21.098Z,4.88
2023-03-05T18:15:47.879Z,4.88
2023-03-05T18:18:15.906Z,4.87
2023-03-05T18:20:43.112Z,4.87
2023-03-05T18:23:10.811Z,4.86
2023-03-05T18:25:37.321Z,4.76
2023-03-05T18:28:12.522Z,4.69
2023-03-05T18:30:42.841Z,4.67
2023-03-05T18:33:17.511Z,4.65
2023-03-05T18:35:44.123Z,4.64
2023-03-05T18:38:10.717Z,4.60
2023-03-05T18:40:39.551Z,4.59
2023-03-05T18:43:06.376Z,4.57
2023-03-05T18:45:34.248Z,4.55
2023-03-05T18:48:00.825Z,4.53
2023-03-05T18:50:28.585Z,4.56
2023-03-05T18:52:55.109Z,4.56
2023-03-05T18:55:27.446Z,4.54
2023-03-05T18:57:54.307Z,4.51
2023-03-05T19:00:24.612Z,4.43
2023-03-05T19:02:51.160Z,4.40
2023-03-05T19:05:18.641Z,4.40
2023-03-05T19:07:45.904Z,4.41
2023-03-05T19:10:14.123Z,4.37
2023-03-05T19:12:55.276Z,4.34
2023-03-05T19:15:22.482Z,4.32
2023-03-05T19:17:49.647Z,4.32
2023-03-05T19:20:17.564Z,4.31
2023-03-05T19:22:44.175Z,4.28
2023-03-05T19:25:11.387Z,4.27
2023-03-05T19:27:38.039Z,4.30
2023-03-05T19:30:05.975Z,4.27
2023-03-05T19:32:35.468Z,4.26
2023-03-05T19:35:02.582Z,4.25
2023-03-05T19:37:31.043Z,4.25
2023-03-05T19:39:57.639Z,4.21
2023-03-05T19:42:24.097Z,4.21
2023-03-05T19:44:50.699Z,4.19
2023-03-05T19:47:17.230Z,4.18
2023-03-05T19:49:43.712Z,4.19
2023-03-05T19:52:10.281Z,4.14
2023-03-05T19:54:36.757Z,4.11
2023-03-05T19:57:03.401Z,4.07
2023-03-05T19:59:29.863Z,4.02
2023-03-05T20:01:57.431Z,3.96
2023-03-05T20:04:24.636Z,3.97
2023-03-05T20:06:51.232Z,3.95
2023-03-05T20:09:17.880Z,3.92
2023-03-05T20:11:44.615Z,3.93
2023-03-05T20:14:13.156Z,3.91
2023-03-05T20:16:40.213Z,3.89
2023-03-05T20:19:10.152Z,3.88
2023-03-05T20:21:41.118Z,3.83
2023-03-05T20:24:11.724Z,3.82
2023-03-05T20:26:39.905Z,3.82
2023-03-05T20:29:07.239Z,3.81
2023-03-05T20:31:36.967Z,3.77
2023-03-05T20:34:06.157Z,3.74
2023-03-05T20:36:34.496Z,3.69
2023-03-05T20:39:03.114Z,3.66
2023-03-05T20:41:29.820Z,3.62
2023-03-05T20:43:56.458Z,3.62
2023-03-05T20:46:28.889Z,3.59
2023-03-05T20:48:59.138Z,3.62
2023-03-05T20:51:30.956Z,3.62
2023-03-05T20:54:04.088Z,3.61
2023-03-05T20:56:32.854Z,3.59
2023-03-05T20:59:03.708Z,3.57
2023-03-05T21:01:31.644Z,3.53
2023-03-05T21:03:58.334Z,3.50
2023-03-05T21:06:26.398Z,3.49
2023-03-05T21:08:53.446Z,3.48
2023-03-05T21:11:20.485Z,3.50
2023-03-05T21:13:47.202Z,3.48
2023-03-05T21:16:18.205Z,3.46
2023-03-05T21:18:44.868Z,3.41
2023-03-05T21:21:11.676Z,3.44
2023-03-05T21:23:38.101Z,3.46
2023-03-05T21:26:04.891Z,3.45
2023-03-05T21:28:31.868Z,3.41
2023-03-05T21:30:58.424Z,3.40
2023-03-05T21:33:27.876Z,3.41
2023-03-05T21:35:54.994Z,3.40
2023-03-05T21:38:23.215Z,3.38
2023-03-05T21:40:50.385Z,3.37
2023-03-05T21:43:19.221Z,3.36
2023-03-05T21:45:47.362Z,3.32
2023-03-05T21:48:15.287Z,3.31
2023-03-05T21:50:44.652Z,3.26
2023-03-05T21:53:12.961Z,3.24
2023-03-05T21:55:58.939Z,3.21
2023-03-05T21:58:25.417Z,3.21
2023-03-05T22:00:51.979Z,3.16
2023-03-05T22:03:18.629Z,3.11
2023-03-05T22:05:45.868Z,3.03
2023-03-05T22:08:12.307Z,3.02
2023-03-05T22:10:40.803Z,2.95
2023-03-05T22:13:12.012Z,2.89
2023-03-05T22:15:42.113Z,2.85
2023-03-05T22:18:08.850Z,2.86
2023-03-05T22:20:35.450Z,2.84
2023-03-05T22:23:02.063Z,2.81
2023-03-05T22:25:28.510Z,2.80
2023-03-05T22:27:55.726Z,2.79
2023-03-05T22:30:22.256Z,2.76
2023-03-05T22:32:48.715Z,2.76
2023-03-05T22:35:16.610Z,2.75
2023-03-05T22:37:43.823Z,2.80
2023-03-05T22:40:16.071Z,2.73
2023-03-05T22:42:42.930Z,2.73
2023-03-05T22:45:10.396Z,2.71
2023-03-05T22:47:37.172Z,2.67
2023-03-05T22:50:04.401Z,2.62
2023-03-05T22:52:31.119Z,2.58
2023-03-05T22:54:57.810Z,2.51
2023-03-05T22:57:24.330Z,2.46
2023-03-05T22:59:50.906Z,2.42
2023-03-05T23:02:17.335Z,2.35
2023-03-05T23:04:49.598Z,2.27
2023-03-05T23:07:22.857Z,2.21
2023-03-05T23:10:01.857Z,2.19
2023-03-05T23:12:30.374Z,2.18
2023-03-05T23:15:00.429Z,2.14
2023-03-05T23:17:27.084Z,2.12
2023-03-05T23:19:53.547Z,2.08
2023-03-05T23:22:20.218Z,2.06
2023-03-05T23:24:46.915Z,2.05
2023-03-05T23:27:15.905Z,1.95
2023-03-05T23:30:16.698Z,1.92
2023-03-05T23:32:47.823Z,1.95
2023-03-05T23:35:17.018Z,1.94
2023-03-05T23:37:43.644Z,1.88
2023-03-05T23:40:15.008Z,1.86
2023-03-05T23:42:42.353Z,1.87
2023-03-05T23:45:11.431Z,1.84
2023-03-05T23:47:38.031Z,1.83
2023-03-05T23:50:06.089Z,1.83
2023-03-05T23:52:33.439Z,1.82
2023-03-05T23:54:59.881Z,1.79
2023-03-05T23:57:26.589Z,1.68
2023-03-05T23:59:53.103Z,1.62
